createdAt,value
2023-05-25T00:00:16.932Z,100.00
2023-05-25T00:01:54.960Z,100.00
2023-05-25T00:03:28.868Z,100.00
2023-05-25T00:05:02.356Z,100.00
2023-05-25T00:06:37.426Z,100.00
2023-05-25T00:08:10.910Z,100.00
2023-05-25T00:09:46.185Z,100.00
2023-05-25T00:11:19.787Z,100.00
2023-05-25T00:12:53.122Z,100.00
2023-05-25T00:14:26.142Z,100.00
2023-05-25T00:15:59.480Z,100.00
2023-05-25T00:17:34.158Z,100.00
2023-05-25T00:19:10.784Z,100.00
2023-05-25T00:20:46.084Z,100.00
2023-05-25T00:22:20.673Z,100.00
2023-05-25T00:23:53.914Z,100.00
2023-05-25T00:25:27.607Z,100.00
2023-05-25T00:27:01.647Z,100.00
2023-05-25T00:28:35.135Z,100.00
2023-05-25T00:30:09.638Z,100.00
2023-05-25T00:31:41.980Z,100.00
2023-05-25T00:33:16.842Z,100.00
2023-05-25T00:34:50.269Z,100.00
2023-05-25T00:36:24.189Z,100.00
2023-05-25T00:37:57.650Z,100.00
2023-05-25T00:39:31.070Z,100.00
2023-05-25T00:41:06.040Z,100.00
2023-05-25T00:42:40.276Z,100.00
2023-05-25T00:44:14.915Z,100.00
2023-05-25T00:45:49.311Z,100.00
2023-05-25T00:47:23.972Z,100.00
2023-05-25T00:48:57.664Z,100.00
2023-05-25T00:50:39.245Z,100.00
2023-05-25T00:52:14.126Z,100.00
2023-05-25T00:53:47.077Z,100.00
2023-05-25T00:55:22.807Z,100.00
2023-05-25T00:56:58.832Z,100.00
2023-05-25T00:58:35.153Z,100.00
2023-05-25T01:00:12.030Z,100.00
2023-05-25T01:01:46.039Z,100.00
2023-05-25T01:03:22.577Z,100.00
2023-05-25T01:05:02.754Z,100.00
2023-05-25T01:06:39.006Z,100.00
2023-05-25T01:08:14.919Z,100.00
2023-05-25T01:09:53.715Z,100.00
2023-05-25T01:11:37.986Z,100.00
2023-05-25T01:13:15.991Z,100.00
2023-05-25T01:14:50.897Z,100.00
2023-05-25T01:16:26.095Z,100.00
2023-05-25T01:17:59.909Z,100.00
2023-05-25T01:19:36.461Z,100.00
2023-05-25T01:21:15.287Z,100.00
2023-05-25T01:22:58.793Z,100.00
2023-05-25T01:24:36.594Z,100.00
2023-05-25T01:26:14.327Z,100.00
2023-05-25T01:27:52.779Z,100.00
2023-05-25T01:29:28.198Z,100.00
2023-05-25T01:31:03.673Z,100.00
2023-05-25T01:32:38.718Z,100.00
2023-05-25T01:34:15.256Z,100.00
2023-05-25T01:35:49.062Z,100.00
2023-05-25T01:37:26.592Z,100.00
2023-05-25T01:38:59.490Z,100.00
2023-05-25T01:40:32.658Z,100.00
2023-05-25T01:42:07.717Z,100.00
2023-05-25T01:43:41.904Z,100.00
2023-05-25T01:45:17.180Z,100.00
2023-05-25T01:46:57.864Z,100.00
2023-05-25T01:48:38.961Z,100.00
2023-05-25T01:50:20.468Z,100.00
2023-05-25T01:52:01.980Z,100.00
2023-05-25T01:53:41.676Z,100.00
2023-05-25T01:55:18.102Z,100.00
2023-05-25T01:56:53.896Z,100.00
2023-05-25T01:58:28.342Z,100.00
2023-05-25T02:00:03.105Z,100.00
2023-05-25T02:01:47.744Z,100.00
2023-05-25T02:03:22.019Z,100.00
2023-05-25T02:04:56.693Z,100.00
2023-05-25T02:06:28.890Z,100.00
2023-05-25T02:08:02.212Z,100.00
2023-05-25T02:09:39.968Z,100.00
2023-05-25T02:11:13.591Z,100.00
2023-05-25T02:12:46.886Z,100.00
2023-05-25T02:14:19.239Z,100.00
2023-05-25T02:15:52.867Z,100.00
2023-05-25T02:17:28.815Z,100.00
2023-05-25T02:19:01.063Z,100.00
2023-05-25T02:20:34.460Z,100.00
2023-05-25T02:22:07.971Z,100.00
2023-05-25T02:23:41.402Z,100.00
2023-05-25T02:25:16.042Z,100.00
2023-05-25T02:26:49.325Z,100.00
2023-05-25T02:28:22.724Z,100.00
2023-05-25T02:29:56.156Z,100.00
2023-05-25T02:31:31.657Z,100.00
2023-05-25T02:33:05.149Z,100.00
2023-05-25T02:34:38.662Z,100.00
2023-05-25T02:36:12.543Z,100.00
2023-05-25T02:37:45.761Z,100.00
2023-05-25T02:39:18.851Z,100.00
2023-05-25T02:40:54.654Z,100.00
2023-05-25T02:42:29.678Z,100.00
2023-05-25T02:44:05.373Z,100.00
2023-05-25T02:45:39.087Z,100.00
2023-05-25T02:47:12.504Z,100.00
2023-05-25T02:48:46.609Z,100.00
2023-05-25T02:50:20.327Z,100.00
2023-05-25T02:51:57.284Z,100.00
2023-05-25T02:53:30.812Z,100.00
2023-05-25T02:55:04.541Z,100.00
2023-05-25T02:56:42.956Z,100.00
2023-05-25T02:58:16.747Z,100.00
2023-05-25T03:00:04.013Z,100.00
2023-05-25T03:01:36.654Z,100.00
2023-05-25T03:03:10.261Z,100.00
2023-05-25T03:04:44.170Z,100.00
2023-05-25T03:06:17.526Z,100.00
2023-05-25T03:07:52.019Z,100.00
2023-05-25T03:09:25.139Z,100.00
2023-05-25T03:10:57.616Z,100.00
2023-05-25T03:12:32.350Z,100.00
2023-05-25T03:14:06.274Z,100.00
2023-05-25T03:15:41.223Z,100.00
2023-05-25T03:17:15.794Z,100.00
2023-05-25T03:18:50.283Z,100.00
2023-05-25T03:20:24.837Z,100.00
2023-05-25T03:21:58.852Z,100.00
2023-05-25T03:23:32.212Z,100.00
2023-05-25T03:25:12.146Z,100.00
2023-05-25T03:26:45.854Z,100.00
2023-05-25T03:28:20.639Z,100.00
2023-05-25T03:29:53.883Z,100.00
2023-05-25T03:31:27.520Z,100.00
2023-05-25T03:33:01.317Z,100.00
2023-05-25T03:34:40.447Z,100.00
2023-05-25T03:36:17.449Z,100.00
2023-05-25T03:37:51.013Z,100.00
2023-05-25T03:39:24.436Z,100.00
2023-05-25T03:40:59.991Z,100.00
2023-05-25T03:42:33.556Z,100.00
2023-05-25T03:44:08.534Z,100.00
2023-05-25T03:45:42.955Z,100.00
2023-05-25T03:47:16.636Z,100.00
2023-05-25T03:48:49.962Z,100.00
2023-05-25T03:50:22.404Z,100.00
2023-05-25T03:51:56.294Z,100.00
2023-05-25T03:53:29.441Z,100.00
2023-05-25T03:55:04.574Z,100.00
2023-05-25T03:56:38.162Z,100.00
2023-05-25T03:58:12.038Z,100.00
2023-05-25T03:59:47.035Z,100.00
2023-05-25T04:01:20.382Z,100.00
2023-05-25T04:02:53.782Z,100.00
2023-05-25T04:04:28.337Z,100.00
2023-05-25T04:06:02.266Z,100.00
2023-05-25T04:07:37.064Z,100.00
2023-05-25T04:09:09.374Z,100.00
2023-05-25T04:10:42.778Z,100.00
2023-05-25T04:12:16.096Z,100.00
2023-05-25T04:13:49.350Z,100.00
2023-05-25T04:15:25.276Z,100.00
2023-05-25T04:17:12.308Z,100.00
2023-05-25T04:18:45.567Z,100.00
2023-05-25T04:20:19.703Z,100.00
2023-05-25T04:21:53.660Z,100.00
2023-05-25T04:23:27.861Z,100.00
2023-05-25T04:25:01.609Z,100.00
2023-05-25T04:26:35.027Z,100.00
2023-05-25T04:28:09.751Z,100.00
2023-05-25T04:30:01.024Z,100.00
2023-05-25T04:32:05.590Z,100.00
2023-05-25T04:34:11.069Z,100.00
2023-05-25T04:35:50.608Z,100.00
2023-05-25T04:37:27.546Z,100.00
2023-05-25T04:39:04.337Z,100.00
2023-05-25T04:40:42.025Z,100.00
2023-05-25T04:42:15.326Z,100.00
2023-05-25T04:44:06.543Z,100.00
2023-05-25T04:45:43.121Z,100.00
2023-05-25T04:47:19.336Z,100.00
2023-05-25T04:48:52.828Z,100.00
2023-05-25T04:50:26.108Z,100.00
2023-05-25T04:51:59.603Z,100.00
2023-05-25T04:53:35.832Z,100.00
2023-05-25T04:55:11.335Z,100.00
2023-05-25T04:56:48.019Z,100.00
2023-05-25T04:58:21.325Z,100.00
2023-05-25T04:59:54.641Z,100.00
2023-05-25T05:01:29.416Z,100.00
2023-05-25T05:03:09.082Z,100.00
2023-05-25T05:04:42.529Z,100.00
2023-05-25T05:06:16.393Z,100.00
2023-05-25T05:07:49.838Z,100.00
2023-05-25T05:09:23.645Z,100.00
2023-05-25T05:10:57.627Z,100.00
2023-05-25T05:12:32.350Z,100.00
2023-05-25T05:14:07.334Z,100.00
2023-05-25T05:15:41.076Z,100.00
2023-05-25T05:17:14.768Z,100.00
2023-05-25T05:18:49.754Z,100.00
2023-05-25T05:20:23.572Z,100.00
2023-05-25T05:21:57.667Z,100.00
2023-05-25T05:23:34.031Z,100.00
2023-05-25T05:25:08.507Z,100.00
2023-05-25T05:26:56.414Z,100.00
2023-05-25T05:28:40.421Z,100.00
2023-05-25T05:30:14.919Z,100.00
2023-05-25T05:31:48.617Z,100.00
2023-05-25T05:33:24.036Z,100.00
2023-05-25T05:34:58.921Z,100.00
2023-05-25T05:36:56.721Z,100.00
2023-05-25T05:38:32.360Z,100.00
2023-05-25T05:40:06.711Z,100.00
2023-05-25T05:41:43.903Z,100.00
2023-05-25T05:43:16.518Z,100.00
2023-05-25T05:44:49.914Z,100.00
2023-05-25T05:46:23.657Z,100.00
2023-05-25T05:47:57.710Z,100.00
2023-05-25T05:49:31.805Z,100.00
2023-05-25T05:51:08.525Z,100.00
2023-05-25T05:52:41.926Z,100.00
2023-05-25T05:54:16.855Z,100.00
2023-05-25T05:55:56.142Z,100.00
2023-05-25T05:57:30.718Z,100.00
2023-05-25T05:59:05.646Z,100.00
2023-05-25T06:00:38.975Z,100.00
2023-05-25T06:02:14.045Z,100.00
2023-05-25T06:03:47.632Z,100.00
2023-05-25T06:05:21.641Z,100.00
2023-05-25T06:06:56.512Z,100.00
2023-05-25T06:08:29.878Z,100.00
2023-05-25T06:10:03.449Z,100.00
2023-05-25T06:11:40.158Z,100.00
2023-05-25T06:13:14.881Z,100.00
2023-05-25T06:14:52.164Z,100.00
2023-05-25T06:16:25.902Z,100.00
2023-05-25T06:17:59.331Z,100.00
2023-05-25T06:19:32.961Z,100.00
2023-05-25T06:21:07.248Z,100.00
2023-05-25T06:22:41.903Z,100.00
2023-05-25T06:24:16.747Z,100.00
2023-05-25T06:25:53.515Z,100.00
2023-05-25T06:27:27.035Z,100.00
2023-05-25T06:29:00.296Z,100.00
2023-05-25T06:30:33.676Z,100.00
2023-05-25T06:32:10.987Z,100.00
2023-05-25T06:33:45.122Z,100.00
2023-05-25T06:35:19.959Z,100.00
2023-05-25T06:36:56.394Z,100.00
2023-05-25T06:38:31.385Z,100.00
2023-05-25T06:40:05.266Z,100.00
2023-05-25T06:41:40.635Z,100.00
2023-05-25T06:43:14.259Z,100.00
2023-05-25T06:45:00.512Z,100.00
2023-05-25T06:46:34.298Z,100.00
2023-05-25T06:48:07.934Z,100.00
2023-05-25T06:49:42.036Z,100.00
2023-05-25T06:51:15.360Z,100.00
2023-05-25T06:52:48.749Z,100.00
2023-05-25T06:54:23.356Z,100.00
2023-05-25T06:55:56.792Z,100.00
2023-05-25T06:57:30.134Z,100.00
2023-05-25T06:59:03.529Z,100.00
2023-05-25T07:00:36.941Z,100.00
2023-05-25T07:02:10.420Z,100.00
2023-05-25T07:03:44.516Z,100.00
2023-05-25T07:05:18.624Z,100.00
2023-05-25T07:06:52.780Z,100.00
2023-05-25T07:08:26.094Z,100.00
2023-05-25T07:10:00.970Z,100.00
2023-05-25T07:11:34.593Z,100.00
2023-05-25T07:13:07.883Z,100.00
2023-05-25T07:14:41.264Z,100.00
2023-05-25T07:16:13.701Z,100.00
2023-05-25T07:17:47.496Z,100.00
2023-05-25T07:19:20.756Z,100.00
2023-05-25T07:20:54.776Z,100.00
2023-05-25T07:22:28.096Z,100.00
2023-05-25T07:24:01.964Z,100.00
2023-05-25T07:25:37.319Z,100.00
2023-05-25T07:27:10.634Z,100.00
2023-05-25T07:28:43.787Z,100.00
2023-05-25T07:30:17.457Z,100.00
2023-05-25T07:31:50.848Z,100.00
2023-05-25T07:33:24.466Z,100.00
2023-05-25T07:34:57.708Z,100.00
2023-05-25T07:36:31.232Z,100.00
2023-05-25T07:38:05.620Z,100.00
2023-05-25T07:39:40.934Z,100.00
2023-05-25T07:41:15.821Z,100.00
2023-05-25T07:42:49.104Z,100.00
2023-05-25T07:44:22.654Z,100.00
2023-05-25T07:45:55.945Z,100.00
2023-05-25T07:47:29.911Z,100.00
2023-05-25T07:49:04.806Z,100.00
2023-05-25T07:50:38.473Z,100.00
2023-05-25T07:52:12.008Z,100.00
2023-05-25T07:53:45.471Z,100.00
2023-05-25T07:55:20.231Z,100.00
2023-05-25T07:56:55.043Z,100.00
2023-05-25T07:58:28.253Z,100.00
2023-05-25T08:00:01.588Z,100.00
2023-05-25T08:01:36.163Z,100.00
2023-05-25T08:03:09.692Z,100.00
2023-05-25T08:04:43.156Z,100.00
2023-05-25T08:06:16.552Z,100.00
2023-05-25T08:07:49.952Z,100.00
2023-05-25T08:09:23.243Z,100.00
2023-05-25T08:10:56.458Z,100.00
2023-05-25T08:12:46.703Z,100.00
2023-05-25T08:14:23.723Z,100.00
2023-05-25T08:15:57.365Z,100.00
2023-05-25T08:17:30.601Z,100.00
2023-05-25T08:19:04.255Z,100.00
2023-05-25T08:20:37.978Z,100.00
2023-05-25T08:22:11.688Z,100.00
2023-05-25T08:23:44.830Z,100.00
2023-05-25T08:25:18.138Z,100.00
2023-05-25T08:26:54.978Z,100.00
2023-05-25T08:28:29.990Z,100.00
2023-05-25T08:30:03.227Z,100.00
2023-05-25T08:31:37.506Z,100.00
2023-05-25T08:33:11.850Z,100.00
2023-05-25T08:34:45.664Z,100.00
2023-05-25T08:36:18.845Z,100.00
2023-05-25T08:37:52.166Z,100.00
2023-05-25T08:39:25.713Z,100.00
2023-05-25T08:41:06.288Z,98.37
2023-05-25T08:42:39.484Z,100.00
2023-05-25T08:44:15.551Z,100.00
2023-05-25T08:45:49.093Z,100.00
2023-05-25T08:47:24.574Z,99.69
2023-05-25T08:49:02.139Z,98.03
2023-05-25T08:50:36.626Z,98.97
2023-05-25T08:52:12.719Z,99.70
2023-05-25T08:53:47.306Z,100.00
2023-05-25T08:55:24.176Z,100.00
2023-05-25T08:57:02.879Z,100.00
2023-05-25T08:58:45.498Z,99.44
2023-05-25T09:00:25.533Z,100.00
2023-05-25T09:02:07.880Z,98.98
2023-05-25T09:03:44.103Z,100.00
2023-05-25T09:05:17.604Z,100.00
2023-05-25T09:07:05.907Z,100.00
2023-05-25T09:08:43.589Z,100.00
2023-05-25T09:10:19.433Z,98.40
2023-05-25T09:11:53.082Z,98.66
2023-05-25T09:13:26.486Z,99.32
2023-05-25T09:14:59.987Z,98.43
2023-05-25T09:16:36.370Z,95.39
2023-05-25T09:18:11.010Z,95.63
2023-05-25T09:19:47.193Z,92.93
2023-05-25T09:21:20.610Z,92.12
2023-05-25T09:22:54.083Z,94.29
2023-05-25T09:24:27.686Z,94.92
2023-05-25T09:26:02.609Z,94.76
2023-05-25T09:27:38.277Z,93.91
2023-05-25T09:29:15.190Z,92.40
2023-05-25T09:30:48.780Z,90.30
2023-05-25T09:32:24.376Z,90.77
2023-05-25T09:34:00.402Z,90.14
2023-05-25T09:35:33.932Z,91.99
2023-05-25T09:37:13.114Z,95.35
2023-05-25T09:38:47.289Z,96.40
2023-05-25T09:40:21.323Z,96.17
2023-05-25T09:41:54.573Z,96.40
2023-05-25T09:43:41.353Z,96.38
2023-05-25T09:45:16.494Z,96.49
2023-05-25T09:46:49.938Z,96.51
2023-05-25T09:48:24.872Z,94.60
2023-05-25T09:49:58.826Z,96.69
2023-05-25T09:51:33.258Z,94.88
2023-05-25T09:53:08.795Z,94.05
2023-05-25T09:54:45.622Z,95.04
2023-05-25T09:56:19.719Z,94.74
2023-05-25T09:57:54.835Z,92.97
2023-05-25T09:59:28.910Z,94.87
2023-05-25T10:01:02.263Z,92.94
2023-05-25T10:02:35.687Z,91.95
2023-05-25T10:04:10.378Z,91.09
2023-05-25T10:05:43.850Z,88.65
2023-05-25T10:07:17.425Z,87.36
2023-05-25T10:08:51.334Z,86.92
2023-05-25T10:10:25.584Z,88.06
2023-05-25T10:12:01.428Z,90.86
2023-05-25T10:13:35.392Z,91.83
2023-05-25T10:15:12.489Z,91.49
2023-05-25T10:16:50.204Z,91.94
2023-05-25T10:18:27.029Z,92.47
2023-05-25T10:20:05.501Z,89.55
2023-05-25T10:21:41.769Z,88.83
2023-05-25T10:23:21.372Z,89.67
2023-05-25T10:24:57.332Z,90.59
2023-05-25T10:26:34.681Z,93.35
2023-05-25T10:28:14.031Z,90.22
2023-05-25T10:29:49.407Z,90.27
2023-05-25T10:31:23.483Z,90.48
2023-05-25T10:32:57.351Z,90.37
2023-05-25T10:34:31.103Z,89.72
2023-05-25T10:36:11.174Z,89.80
2023-05-25T10:37:46.277Z,89.61
2023-05-25T10:39:21.388Z,91.96
2023-05-25T10:40:57.392Z,93.12
2023-05-25T10:42:31.614Z,92.09
2023-05-25T10:44:05.281Z,90.79
2023-05-25T10:45:38.514Z,90.62
2023-05-25T10:47:12.255Z,90.91
2023-05-25T10:48:47.894Z,90.69
2023-05-25T10:50:23.063Z,90.32
2023-05-25T10:52:01.192Z,91.19
2023-05-25T10:53:34.541Z,91.54
2023-05-25T10:55:09.618Z,96.56
2023-05-25T10:57:10.648Z,98.85
2023-05-25T10:58:45.232Z,94.91
2023-05-25T11:00:19.509Z,94.33
2023-05-25T11:01:53.292Z,95.92
2023-05-25T11:03:56.117Z,91.80
2023-05-25T11:05:38.434Z,91.38
2023-05-25T11:07:16.871Z,89.90
2023-05-25T11:08:51.677Z,90.57
2023-05-25T11:10:53.202Z,93.67
2023-05-25T11:12:28.095Z,94.74
2023-05-25T11:14:03.247Z,99.56
2023-05-25T11:15:36.580Z,99.67
2023-05-25T11:17:12.238Z,100.00
2023-05-25T11:18:47.271Z,100.00
2023-05-25T11:20:29.149Z,100.00
2023-05-25T11:22:16.867Z,100.00
2023-05-25T11:23:58.073Z,100.00
2023-05-25T11:25:39.876Z,100.00
2023-05-25T11:27:13.748Z,100.00
2023-05-25T11:28:48.227Z,100.00
2023-05-25T11:30:21.886Z,99.95
2023-05-25T11:31:56.728Z,99.22
2023-05-25T11:33:30.028Z,98.29
2023-05-25T11:35:03.571Z,97.77
2023-05-25T11:36:38.004Z,97.11
2023-05-25T11:38:12.814Z,97.05
2023-05-25T11:39:48.763Z,97.54
2023-05-25T11:41:23.594Z,97.39
2023-05-25T11:43:00.708Z,97.23
2023-05-25T11:44:36.385Z,96.82
2023-05-25T11:46:11.011Z,96.24
2023-05-25T11:47:44.569Z,97.46
2023-05-25T11:49:18.040Z,97.18
2023-05-25T11:51:05.734Z,99.64
2023-05-25T11:52:38.935Z,98.13
2023-05-25T11:54:23.015Z,100.00
2023-05-25T11:56:07.061Z,100.00
2023-05-25T11:57:41.897Z,100.00
2023-05-25T11:59:15.153Z,100.00
2023-05-25T12:00:49.234Z,100.00
2023-05-25T12:02:23.727Z,100.00
2023-05-25T12:03:57.633Z,100.00
2023-05-25T12:05:39.215Z,100.00
2023-05-25T12:07:13.116Z,100.00
2023-05-25T12:08:46.504Z,100.00
2023-05-25T12:10:21.382Z,98.91
2023-05-25T12:11:55.184Z,97.03
2023-05-25T12:13:28.915Z,93.93
2023-05-25T12:15:04.010Z,91.93
2023-05-25T12:16:39.021Z,89.46
2023-05-25T12:18:12.483Z,88.21
2023-05-25T12:19:47.189Z,84.99
2023-05-25T12:21:21.989Z,83.39
2023-05-25T12:22:55.593Z,77.44
2023-05-25T12:24:29.118Z,81.54
2023-05-25T12:26:13.412Z,76.11
2023-05-25T12:27:46.756Z,79.00
2023-05-25T12:29:20.225Z,78.10
2023-05-25T12:30:53.536Z,76.83
2023-05-25T12:32:27.534Z,77.72
2023-05-25T12:34:11.505Z,77.97
2023-05-25T12:35:48.890Z,77.18
2023-05-25T12:37:23.420Z,76.99
2023-05-25T12:39:00.756Z,74.91
2023-05-25T12:40:34.004Z,77.88
2023-05-25T12:42:15.461Z,76.15
2023-05-25T12:43:48.921Z,76.41
2023-05-25T12:45:22.692Z,74.83
2023-05-25T12:46:57.575Z,74.96
2023-05-25T12:48:31.845Z,73.75
2023-05-25T12:50:13.213Z,70.22
2023-05-25T12:51:47.019Z,72.41
2023-05-25T12:53:20.173Z,71.73
2023-05-25T12:54:53.429Z,70.42
2023-05-25T12:56:29.171Z,69.60
2023-05-25T12:58:06.563Z,66.10
2023-05-25T12:59:41.010Z,68.71
2023-05-25T13:01:14.602Z,66.46
2023-05-25T13:02:49.584Z,66.59
2023-05-25T13:04:24.751Z,65.97
2023-05-25T13:06:02.558Z,64.65
2023-05-25T13:07:36.116Z,66.94
2023-05-25T13:09:10.002Z,66.80
2023-05-25T13:10:46.523Z,66.60
2023-05-25T13:12:19.735Z,69.09
2023-05-25T13:13:54.425Z,74.66
2023-05-25T13:15:28.512Z,78.45
2023-05-25T13:17:02.428Z,82.50
2023-05-25T13:18:36.382Z,84.69
2023-05-25T13:20:10.286Z,87.26
2023-05-25T13:21:43.546Z,91.92
2023-05-25T13:23:17.446Z,95.02
2023-05-25T13:24:50.624Z,98.58
2023-05-25T13:26:27.909Z,100.00
2023-05-25T13:28:01.281Z,100.00
2023-05-25T13:29:36.716Z,100.00
2023-05-25T13:31:09.956Z,100.00
2023-05-25T13:32:44.487Z,100.00
2023-05-25T13:34:17.841Z,100.00
2023-05-25T13:35:59.288Z,100.00
2023-05-25T13:37:33.455Z,99.26
2023-05-25T13:39:07.441Z,96.88
2023-05-25T13:40:40.649Z,96.61
2023-05-25T13:42:14.944Z,96.25
2023-05-25T13:43:48.617Z,94.88
2023-05-25T13:45:23.717Z,92.91
2023-05-25T13:46:57.082Z,93.05
2023-05-25T13:48:31.255Z,93.42
2023-05-25T13:50:04.724Z,92.42
2023-05-25T13:51:38.641Z,92.20
2023-05-25T13:53:12.945Z,93.26
2023-05-25T13:54:46.454Z,94.50
